sensor_id;sensor_type;location;lat;lon;timestamp;P1;durP1;ratioP1;P2;durP2;ratioP2
41572;SDS011;27286;47.870;19.006;2023-01-25T00:00:41;41.80;;;27.08;;
41572;SDS011;27286;47.870;19.006;2023-01-25T00:03:06;45.33;;;27.85;;
41572;SDS011;27286;47.870;19.006;2023-01-25T00:05:32;41.53;;;26.40;;
41572;SDS011;27286;47.870;19.006;2023-01-25T00:07:57;40.55;;;23.20;;
41572;SDS011;27286;47.870;19.006;2023-01-25T00:10:23;36.33;;;20.52;;
41572;SDS011;27286;47.870;19.006;2023-01-25T00:12:48;31.92;;;21.15;;
41572;SDS011;27286;47.870;19.006;2023-01-25T00:15:14;26.75;;;16.48;;
41572;SDS011;27286;47.870;19.006;2023-01-25T00:17:39;19.25;;;10.48;;
41572;SDS011;27286;47.870;19.006;2023-01-25T00:20:05;14.35;;;7.47;;
41572;SDS011;27286;47.870;19.006;2023-01-25T00:22:31;14.10;;;7.72;;
41572;SDS011;27286;47.870;19.006;2023-01-25T00:24:56;12.68;;;6.93;;
41572;SDS011;27286;47.870;19.006;2023-01-25T00:27:22;19.85;;;12.02;;
41572;SDS011;27286;47.870;19.006;2023-01-25T00:29:47;21.63;;;11.40;;
41572;SDS011;27286;47.870;19.006;2023-01-25T00:34:45;19.88;;;12.02;;
41572;SDS011;27286;47.870;19.006;2023-01-25T00:37:19;32.60;;;20.63;;
41572;SDS011;27286;47.870;19.006;2023-01-25T00:39:48;42.22;;;26.17;;
41572;SDS011;27286;47.870;19.006;2023-01-25T00:42:14;48.85;;;29.77;;
41572;SDS011;27286;47.870;19.006;2023-01-25T00:44:42;53.50;;;30.52;;
41572;SDS011;27286;47.870;19.006;2023-01-25T00:47:11;46.55;;;26.02;;
41572;SDS011;27286;47.870;19.006;2023-01-25T00:49:37;47.28;;;26.15;;
41572;SDS011;27286;47.870;19.006;2023-01-25T00:52:03;46.50;;;26.85;;
41572;SDS011;27286;47.870;19.006;2023-01-25T00:54:30;41.00;;;24.65;;
41572;SDS011;27286;47.870;19.006;2023-01-25T00:56:55;40.35;;;22.83;;
41572;SDS011;27286;47.870;19.006;2023-01-25T00:59:21;30.42;;;17.48;;
41572;SDS011;27286;47.870;19.006;2023-01-25T01:01:47;26.67;;;16.48;;
41572;SDS011;27286;47.870;19.006;2023-01-25T01:04:13;21.67;;;12.50;;
41572;SDS011;27286;47.870;19.006;2023-01-25T01:06:39;29.42;;;15.77;;
41572;SDS011;27286;47.870;19.006;2023-01-25T01:09:06;26.63;;;15.48;;
41572;SDS011;27286;47.870;19.006;2023-01-25T01:11:36;24.05;;;14.90;;
41572;SDS011;27286;47.870;19.006;2023-01-25T01:14:01;25.42;;;15.85;;
41572;SDS011;27286;47.870;19.006;2023-01-25T01:16:28;32.42;;;16.73;;
41572;SDS011;27286;47.870;19.006;2023-01-25T01:18:53;36.80;;;20.45;;
41572;SDS011;27286;47.870;19.006;2023-01-25T01:21:19;50.42;;;24.05;;
41572;SDS011;27286;47.870;19.006;2023-01-25T01:23:45;39.13;;;22.55;;
41572;SDS011;27286;47.870;19.006;2023-01-25T01:26:12;30.70;;;17.92;;
41572;SDS011;27286;47.870;19.006;2023-01-25T01:28:39;28.05;;;17.42;;
41572;SDS011;27286;47.870;19.006;2023-01-25T01:31:06;28.70;;;15.25;;
41572;SDS011;27286;47.870;19.006;2023-01-25T01:33:34;25.10;;;14.23;;
41572;SDS011;27286;47.870;19.006;2023-01-25T01:36:13;21.67;;;12.43;;
41572;SDS011;27286;47.870;19.006;2023-01-25T01:38:41;27.05;;;15.15;;
41572;SDS011;27286;47.870;19.006;2023-01-25T01:41:07;27.42;;;15.40;;
41572;SDS011;27286;47.870;19.006;2023-01-25T01:43:33;32.17;;;16.73;;
41572;SDS011;27286;47.870;19.006;2023-01-25T01:46:00;32.47;;;18.35;;
41572;SDS011;27286;47.870;19.006;2023-01-25T01:48:37;26.50;;;16.95;;
41572;SDS011;27286;47.870;19.006;2023-01-25T01:54:01;24.10;;;14.70;;
41572;SDS011;27286;47.870;19.006;2023-01-25T01:59:23;29.30;;;15.25;;
41572;SDS011;27286;47.870;19.006;2023-01-25T02:01:54;26.30;;;13.75;;
41572;SDS011;27286;47.870;19.006;2023-01-25T02:04:20;32.38;;;17.55;;
41572;SDS011;27286;47.870;19.006;2023-01-25T02:07:02;28.40;;;16.85;;
41572;SDS011;27286;47.870;19.006;2023-01-25T02:09:39;27.17;;;17.20;;
41572;SDS011;27286;47.870;19.006;2023-01-25T02:12:05;27.95;;;15.70;;
41572;SDS011;27286;47.870;19.006;2023-01-25T02:14:33;27.33;;;17.15;;
41572;SDS011;27286;47.870;19.006;2023-01-25T02:16:58;35.17;;;17.58;;
41572;SDS011;27286;47.870;19.006;2023-01-25T02:19:29;27.85;;;15.90;;
41572;SDS011;27286;47.870;19.006;2023-01-25T02:21:56;22.75;;;14.50;;
41572;SDS011;27286;47.870;19.006;2023-01-25T02:24:25;26.83;;;14.40;;
41572;SDS011;27286;47.870;19.006;2023-01-25T02:26:54;28.92;;;17.95;;
41572;SDS011;27286;47.870;19.006;2023-01-25T02:29:20;32.95;;;18.65;;
41572;SDS011;27286;47.870;19.006;2023-01-25T02:31:48;30.63;;;17.45;;
41572;SDS011;27286;47.870;19.006;2023-01-25T02:34:16;26.85;;;16.70;;
41572;SDS011;27286;47.870;19.006;2023-01-25T02:36:43;35.35;;;19.25;;
41572;SDS011;27286;47.870;19.006;2023-01-25T02:39:10;23.52;;;13.88;;
41572;SDS011;27286;47.870;19.006;2023-01-25T02:41:38;22.48;;;11.65;;
41572;SDS011;27286;47.870;19.006;2023-01-25T02:44:26;17.38;;;11.27;;
41572;SDS011;27286;47.870;19.006;2023-01-25T02:46:52;30.90;;;14.52;;
41572;SDS011;27286;47.870;19.006;2023-01-25T02:49:18;22.63;;;12.38;;
41572;SDS011;27286;47.870;19.006;2023-01-25T02:51:45;20.15;;;11.88;;
41572;SDS011;27286;47.870;19.006;2023-01-25T02:54:13;25.67;;;11.40;;
41572;SDS011;27286;47.870;19.006;2023-01-25T02:56:40;16.30;;;8.82;;
41572;SDS011;27286;47.870;19.006;2023-01-25T02:59:06;18.23;;;9.75;;
41572;SDS011;27286;47.870;19.006;2023-01-25T03:01:32;20.27;;;10.15;;
41572;SDS011;27286;47.870;19.006;2023-01-25T03:03:59;17.17;;;10.07;;
41572;SDS011;27286;47.870;19.006;2023-01-25T03:06:25;16.35;;;9.65;;
41572;SDS011;27286;47.870;19.006;2023-01-25T03:08:50;15.68;;;8.68;;
41572;SDS011;27286;47.870;19.006;2023-01-25T03:11:15;15.07;;;8.40;;
41572;SDS011;27286;47.870;19.006;2023-01-25T03:13:41;16.70;;;9.60;;
41572;SDS011;27286;47.870;19.006;2023-01-25T03:16:07;15.32;;;8.32;;
41572;SDS011;27286;47.870;19.006;2023-01-25T03:18:34;18.40;;;8.75;;
41572;SDS011;27286;47.870;19.006;2023-01-25T03:21:11;17.92;;;10.02;;
41572;SDS011;27286;47.870;19.006;2023-01-25T03:23:38;17.50;;;9.35;;
41572;SDS011;27286;47.870;19.006;2023-01-25T03:28:34;20.92;;;10.57;;
41572;SDS011;27286;47.870;19.006;2023-01-25T03:31:00;17.30;;;10.85;;
41572;SDS011;27286;47.870;19.006;2023-01-25T03:33:25;20.05;;;10.55;;
41572;SDS011;27286;47.870;19.006;2023-01-25T03:35:51;18.55;;;10.82;;
41572;SDS011;27286;47.870;19.006;2023-01-25T03:38:17;17.58;;;11.05;;
41572;SDS011;27286;47.870;19.006;2023-01-25T03:40:44;21.67;;;12.30;;
41572;SDS011;27286;47.870;19.006;2023-01-25T03:43:10;27.08;;;13.63;;
41572;SDS011;27286;47.870;19.006;2023-01-25T03:45:35;26.58;;;14.52;;
41572;SDS011;27286;47.870;19.006;2023-01-25T03:48:01;23.80;;;12.77;;
41572;SDS011;27286;47.870;19.006;2023-01-25T03:50:26;20.85;;;10.77;;
41572;SDS011;27286;47.870;19.006;2023-01-25T03:52:51;20.65;;;11.90;;
41572;SDS011;27286;47.870;19.006;2023-01-25T03:55:23;17.67;;;10.82;;
41572;SDS011;27286;47.870;19.006;2023-01-25T03:57:49;19.15;;;12.23;;
41572;SDS011;27286;47.870;19.006;2023-01-25T04:00:14;24.05;;;13.15;;
41572;SDS011;27286;47.870;19.006;2023-01-25T04:02:40;23.27;;;12.95;;
41572;SDS011;27286;47.870;19.006;2023-01-25T04:05:06;23.88;;;13.93;;
41572;SDS011;27286;47.870;19.006;2023-01-25T04:07:32;25.15;;;14.98;;
41572;SDS011;27286;47.870;19.006;2023-01-25T04:09:58;28.77;;;15.68;;
41572;SDS011;27286;47.870;19.006;2023-01-25T04:12:23;28.58;;;15.48;;
41572;SDS011;27286;47.870;19.006;2023-01-25T04:14:49;33.83;;;17.05;;
41572;SDS011;27286;47.870;19.006;2023-01-25T04:17:14;30.15;;;15.75;;
41572;SDS011;27286;47.870;19.006;2023-01-25T04:19:40;22.20;;;13.82;;
41572;SDS011;27286;47.870;19.006;2023-01-25T04:22:05;25.33;;;13.27;;
41572;SDS011;27286;47.870;19.006;2023-01-25T04:24:31;22.60;;;11.75;;
41572;SDS011;27286;47.870;19.006;2023-01-25T04:26:56;19.38;;;11.40;;
41572;SDS011;27286;47.870;19.006;2023-01-25T04:29:21;23.42;;;12.50;;
41572;SDS011;27286;47.870;19.006;2023-01-25T04:31:47;31.70;;;17.05;;
41572;SDS011;27286;47.870;19.006;2023-01-25T04:34:12;30.58;;;18.63;;
41572;SDS011;27286;47.870;19.006;2023-01-25T04:36:38;34.25;;;15.30;;
41572;SDS011;27286;47.870;19.006;2023-01-25T04:39:03;26.40;;;15.50;;
41572;SDS011;27286;47.870;19.006;2023-01-25T04:41:28;41.35;;;22.42;;
41572;SDS011;27286;47.870;19.006;2023-01-25T04:43:54;35.80;;;19.70;;
41572;SDS011;27286;47.870;19.006;2023-01-25T04:46:20;57.17;;;30.27;;
41572;SDS011;27286;47.870;19.006;2023-01-25T04:48:46;49.78;;;26.75;;
41572;SDS011;27286;47.870;19.006;2023-01-25T04:51:11;50.83;;;26.30;;
41572;SDS011;27286;47.870;19.006;2023-01-25T04:53:38;53.60;;;28.60;;
41572;SDS011;27286;47.870;19.006;2023-01-25T04:56:03;55.63;;;28.90;;
41572;SDS011;27286;47.870;19.006;2023-01-25T04:58:29;47.80;;;26.80;;
41572;SDS011;27286;47.870;19.006;2023-01-25T05:00:58;44.00;;;23.85;;
41572;SDS011;27286;47.870;19.006;2023-01-25T05:03:27;41.00;;;23.80;;
41572;SDS011;27286;47.870;19.006;2023-01-25T05:05:52;39.08;;;21.35;;
41572;SDS011;27286;47.870;19.006;2023-01-25T05:08:18;36.92;;;20.10;;
41572;SDS011;27286;47.870;19.006;2023-01-25T05:10:43;34.13;;;18.55;;
41572;SDS011;27286;47.870;19.006;2023-01-25T05:13:09;28.48;;;16.13;;
41572;SDS011;27286;47.870;19.006;2023-01-25T05:15:34;26.10;;;16.80;;
41572;SDS011;27286;47.870;19.006;2023-01-25T05:18:00;25.17;;;12.77;;
41572;SDS011;27286;47.870;19.006;2023-01-25T05:20:25;28.15;;;13.70;;
41572;SDS011;27286;47.870;19.006;2023-01-25T05:22:51;26.27;;;14.70;;
41572;SDS011;27286;47.870;19.006;2023-01-25T05:25:16;41.53;;;23.98;;
41572;SDS011;27286;47.870;19.006;2023-01-25T05:28:02;31.65;;;18.23;;
41572;SDS011;27286;47.870;19.006;2023-01-25T05:30:29;33.13;;;17.85;;
41572;SDS011;27286;47.870;19.006;2023-01-25T05:32:54;29.20;;;17.35;;
41572;SDS011;27286;47.870;19.006;2023-01-25T05:35:19;29.63;;;17.65;;
41572;SDS011;27286;47.870;19.006;2023-01-25T05:37:45;27.58;;;14.30;;
41572;SDS011;27286;47.870;19.006;2023-01-25T05:40:10;21.20;;;10.73;;
41572;SDS011;27286;47.870;19.006;2023-01-25T05:42:36;29.40;;;11.35;;
41572;SDS011;27286;47.870;19.006;2023-01-25T05:45:02;21.58;;;11.48;;
41572;SDS011;27286;47.870;19.006;2023-01-25T05:47:27;23.17;;;12.00;;
41572;SDS011;27286;47.870;19.006;2023-01-25T05:49:53;20.98;;;11.82;;
41572;SDS011;27286;47.870;19.006;2023-01-25T05:52:18;22.50;;;11.57;;
41572;SDS011;27286;47.870;19.006;2023-01-25T05:54:43;18.85;;;10.30;;
41572;SDS011;27286;47.870;19.006;2023-01-25T05:57:09;16.05;;;9.30;;
41572;SDS011;27286;47.870;19.006;2023-01-25T05:59:35;18.02;;;10.05;;
41572;SDS011;27286;47.870;19.006;2023-01-25T06:02:00;17.83;;;9.10;;
41572;SDS011;27286;47.870;19.006;2023-01-25T06:04:25;15.77;;;8.50;;
41572;SDS011;27286;47.870;19.006;2023-01-25T06:06:51;18.17;;;10.73;;
41572;SDS011;27286;47.870;19.006;2023-01-25T06:09:16;16.33;;;9.65;;
41572;SDS011;27286;47.870;19.006;2023-01-25T06:11:42;20.23;;;11.43;;
41572;SDS011;27286;47.870;19.006;2023-01-25T06:14:09;20.88;;;10.50;;
41572;SDS011;27286;47.870;19.006;2023-01-25T06:16:34;21.75;;;10.43;;
41572;SDS011;27286;47.870;19.006;2023-01-25T06:19:00;20.52;;;10.38;;
41572;SDS011;27286;47.870;19.006;2023-01-25T06:21:25;21.20;;;10.48;;
41572;SDS011;27286;47.870;19.006;2023-01-25T06:23:51;18.73;;;10.55;;
41572;SDS011;27286;47.870;19.006;2023-01-25T06:26:16;21.55;;;11.60;;
41572;SDS011;27286;47.870;19.006;2023-01-25T06:28:42;27.33;;;12.82;;
41572;SDS011;27286;47.870;19.006;2023-01-25T06:33:33;43.22;;;24.58;;
41572;SDS011;27286;47.870;19.006;2023-01-25T06:36:03;44.10;;;26.55;;
41572;SDS011;27286;47.870;19.006;2023-01-25T06:38:31;41.53;;;24.52;;
41572;SDS011;27286;47.870;19.006;2023-01-25T06:41:00;31.92;;;19.65;;
41572;SDS011;27286;47.870;19.006;2023-01-25T06:43:28;31.38;;;16.38;;
41572;SDS011;27286;47.870;19.006;2023-01-25T06:45:58;24.13;;;13.05;;
41572;SDS011;27286;47.870;19.006;2023-01-25T06:48:25;18.90;;;10.18;;
41572;SDS011;27286;47.870;19.006;2023-01-25T06:50:55;22.15;;;10.63;;
41572;SDS011;27286;47.870;19.006;2023-01-25T06:53:28;18.00;;;10.00;;
41572;SDS011;27286;47.870;19.006;2023-01-25T06:55:59;19.00;;;10.80;;
41572;SDS011;27286;47.870;19.006;2023-01-25T06:58:26;19.27;;;10.27;;
41572;SDS011;27286;47.870;19.006;2023-01-25T07:00:52;20.45;;;9.60;;
41572;SDS011;27286;47.870;19.006;2023-01-25T07:03:18;22.35;;;10.35;;
41572;SDS011;27286;47.870;19.006;2023-01-25T07:05:43;39.17;;;21.38;;
41572;SDS011;27286;47.870;19.006;2023-01-25T07:08:10;46.47;;;26.63;;
41572;SDS011;27286;47.870;19.006;2023-01-25T07:10:35;37.13;;;21.92;;
41572;SDS011;27286;47.870;19.006;2023-01-25T07:13:01;30.13;;;18.95;;
41572;SDS011;27286;47.870;19.006;2023-01-25T07:15:26;38.30;;;22.08;;
41572;SDS011;27286;47.870;19.006;2023-01-25T07:17:52;20.67;;;12.27;;
41572;SDS011;27286;47.870;19.006;2023-01-25T07:20:18;17.50;;;10.43;;
41572;SDS011;27286;47.870;19.006;2023-01-25T07:22:43;20.25;;;10.93;;
41572;SDS011;27286;47.870;19.006;2023-01-25T07:25:08;15.45;;;9.38;;
41572;SDS011;27286;47.870;19.006;2023-01-25T07:27:34;15.07;;;8.93;;
41572;SDS011;27286;47.870;19.006;2023-01-25T07:29:59;16.30;;;9.55;;
41572;SDS011;27286;47.870;19.006;2023-01-25T07:32:27;60.83;;;37.30;;
41572;SDS011;27286;47.870;19.006;2023-01-25T07:34:52;203.05;;;114.07;;
41572;SDS011;27286;47.870;19.006;2023-01-25T07:37:18;180.75;;;100.35;;
41572;SDS011;27286;47.870;19.006;2023-01-25T07:39:43;89.85;;;51.17;;
41572;SDS011;27286;47.870;19.006;2023-01-25T07:42:14;103.60;;;56.63;;
41572;SDS011;27286;47.870;19.006;2023-01-25T07:44:40;36.85;;;24.95;;
41572;SDS011;27286;47.870;19.006;2023-01-25T07:47:05;37.30;;;23.80;;
41572;SDS011;27286;47.870;19.006;2023-01-25T07:49:31;43.58;;;26.60;;
41572;SDS011;27286;47.870;19.006;2023-01-25T07:51:57;40.67;;;25.75;;
41572;SDS011;27286;47.870;19.006;2023-01-25T07:54:22;34.30;;;22.00;;
41572;SDS011;27286;47.870;19.006;2023-01-25T07:56:48;44.15;;;33.15;;
41572;SDS011;27286;47.870;19.006;2023-01-25T07:59:13;36.35;;;25.77;;
41572;SDS011;27286;47.870;19.006;2023-01-25T08:01:39;36.72;;;23.52;;
41572;SDS011;27286;47.870;19.006;2023-01-25T08:04:05;49.05;;;29.67;;
41572;SDS011;27286;47.870;19.006;2023-01-25T08:06:32;59.30;;;35.78;;
41572;SDS011;27286;47.870;19.006;2023-01-25T08:09:07;53.55;;;30.80;;
41572;SDS011;27286;47.870;19.006;2023-01-25T08:11:36;44.13;;;27.83;;
41572;SDS011;27286;47.870;19.006;2023-01-25T08:14:01;42.33;;;26.42;;
41572;SDS011;27286;47.870;19.006;2023-01-25T08:16:27;53.45;;;37.17;;
41572;SDS011;27286;47.870;19.006;2023-01-25T08:18:55;40.70;;;30.13;;
41572;SDS011;27286;47.870;19.006;2023-01-25T08:21:24;35.17;;;24.73;;
41572;SDS011;27286;47.870;19.006;2023-01-25T08:23:53;30.35;;;22.17;;
41572;SDS011;27286;47.870;19.006;2023-01-25T08:26:23;31.83;;;22.45;;
41572;SDS011;27286;47.870;19.006;2023-01-25T08:28:48;32.72;;;23.98;;
41572;SDS011;27286;47.870;19.006;2023-01-25T08:31:18;29.48;;;21.75;;
41572;SDS011;27286;47.870;19.006;2023-01-25T08:33:47;44.50;;;35.70;;
41572;SDS011;27286;47.870;19.006;2023-01-25T08:36:14;57.72;;;43.60;;
41572;SDS011;27286;47.870;19.006;2023-01-25T08:38:42;54.38;;;45.13;;
41572;SDS011;27286;47.870;19.006;2023-01-25T08:43:38;49.38;;;42.70;;
41572;SDS011;27286;47.870;19.006;2023-01-25T08:46:04;39.63;;;34.83;;
41572;SDS011;27286;47.870;19.006;2023-01-25T08:48:30;42.53;;;35.05;;
41572;SDS011;27286;47.870;19.006;2023-01-25T08:50:56;39.15;;;34.38;;
41572;SDS011;27286;47.870;19.006;2023-01-25T08:53:21;33.30;;;25.63;;
41572;SDS011;27286;47.870;19.006;2023-01-25T08:55:47;41.65;;;33.65;;
41572;SDS011;27286;47.870;19.006;2023-01-25T08:58:13;34.58;;;28.42;;
41572;SDS011;27286;47.870;19.006;2023-01-25T09:00:40;49.53;;;34.00;;
41572;SDS011;27286;47.870;19.006;2023-01-25T09:03:06;47.42;;;35.97;;
41572;SDS011;27286;47.870;19.006;2023-01-25T09:05:33;51.72;;;37.75;;
41572;SDS011;27286;47.870;19.006;2023-01-25T09:07:59;48.50;;;36.55;;
41572;SDS011;27286;47.870;19.006;2023-01-25T09:10:24;34.67;;;27.35;;
41572;SDS011;27286;47.870;19.006;2023-01-25T09:12:50;26.58;;;20.73;;
41572;SDS011;27286;47.870;19.006;2023-01-25T09:15:15;22.48;;;14.27;;
41572;SDS011;27286;47.870;19.006;2023-01-25T09:17:41;9.85;;;7.85;;
41572;SDS011;27286;47.870;19.006;2023-01-25T09:20:06;15.18;;;11.00;;
41572;SDS011;27286;47.870;19.006;2023-01-25T09:22:33;14.30;;;11.07;;
41572;SDS011;27286;47.870;19.006;2023-01-25T09:24:58;17.40;;;11.40;;
41572;SDS011;27286;47.870;19.006;2023-01-25T09:27:24;15.25;;;10.32;;
41572;SDS011;27286;47.870;19.006;2023-01-25T09:29:49;14.30;;;9.88;;
41572;SDS011;27286;47.870;19.006;2023-01-25T09:32:15;16.75;;;11.85;;
41572;SDS011;27286;47.870;19.006;2023-01-25T09:34:40;11.70;;;9.90;;
41572;SDS011;27286;47.870;19.006;2023-01-25T09:37:06;9.45;;;8.00;;
41572;SDS011;27286;47.870;19.006;2023-01-25T09:39:31;9.85;;;7.70;;
41572;SDS011;27286;47.870;19.006;2023-01-25T09:42:11;15.13;;;9.55;;
41572;SDS011;27286;47.870;19.006;2023-01-25T09:53:46;11.02;;;7.28;;
41572;SDS011;27286;47.870;19.006;2023-01-25T09:56:24;13.05;;;7.38;;
41572;SDS011;27286;47.870;19.006;2023-01-25T09:58:57;10.88;;;8.32;;
41572;SDS011;27286;47.870;19.006;2023-01-25T10:01:29;11.90;;;6.90;;
41572;SDS011;27286;47.870;19.006;2023-01-25T10:04:18;11.18;;;8.75;;
41572;SDS011;27286;47.870;19.006;2023-01-25T10:06:51;12.75;;;9.45;;
41572;SDS011;27286;47.870;19.006;2023-01-25T10:11:54;10.65;;;7.15;;
41572;SDS011;27286;47.870;19.006;2023-01-25T10:14:22;15.20;;;10.00;;
41572;SDS011;27286;47.870;19.006;2023-01-25T10:16:57;12.07;;;8.98;;
41572;SDS011;27286;47.870;19.006;2023-01-25T10:22:18;12.23;;;9.07;;
41572;SDS011;27286;47.870;19.006;2023-01-25T10:32:59;20.70;;;14.27;;
41572;SDS011;27286;47.870;19.006;2023-01-25T10:35:28;15.90;;;11.95;;
41572;SDS011;27286;47.870;19.006;2023-01-25T10:38:01;14.32;;;9.55;;
41572;SDS011;27286;47.870;19.006;2023-01-25T10:40:34;22.97;;;12.53;;
41572;SDS011;27286;47.870;19.006;2023-01-25T10:43:10;15.60;;;10.18;;
41572;SDS011;27286;47.870;19.006;2023-01-25T10:45:40;16.92;;;11.02;;
41572;SDS011;27286;47.870;19.006;2023-01-25T10:48:11;17.42;;;11.48;;
41572;SDS011;27286;47.870;19.006;2023-01-25T10:50:43;14.20;;;10.32;;
41572;SDS011;27286;47.870;19.006;2023-01-25T10:53:25;17.48;;;10.35;;
41572;SDS011;27286;47.870;19.006;2023-01-25T10:55:58;13.23;;;9.20;;
41572;SDS011;27286;47.870;19.006;2023-01-25T10:58:44;23.80;;;13.82;;
41572;SDS011;27286;47.870;19.006;2023-01-25T11:03:56;15.18;;;9.30;;
41572;SDS011;27286;47.870;19.006;2023-01-25T11:08:54;15.52;;;9.68;;
41572;SDS011;27286;47.870;19.006;2023-01-25T11:11:36;21.17;;;13.23;;
41572;SDS011;27286;47.870;19.006;2023-01-25T11:14:15;21.45;;;12.02;;
41572;SDS011;27286;47.870;19.006;2023-01-25T11:16:43;21.75;;;13.50;;
41572;SDS011;27286;47.870;19.006;2023-01-25T11:22:19;18.65;;;11.23;;
41572;SDS011;27286;47.870;19.006;2023-01-25T11:24:48;14.73;;;10.27;;
41572;SDS011;27286;47.870;19.006;2023-01-25T11:27:18;19.63;;;13.10;;
41572;SDS011;27286;47.870;19.006;2023-01-25T11:30:21;24.90;;;14.82;;
41572;SDS011;27286;47.870;19.006;2023-01-25T11:32:41;15.85;;;10.20;;
41572;SDS011;27286;47.870;19.006;2023-01-25T11:35:23;20.50;;;12.35;;
41572;SDS011;27286;47.870;19.006;2023-01-25T11:40:47;36.50;;;22.40;;
41572;SDS011;27286;47.870;19.006;2023-01-25T11:46:18;27.13;;;17.85;;
41572;SDS011;27286;47.870;19.006;2023-01-25T11:56:40;19.08;;;12.15;;
41572;SDS011;27286;47.870;19.006;2023-01-25T12:15:40;14.55;;;9.70;;
41572;SDS011;27286;47.870;19.006;2023-01-25T12:26:36;13.93;;;9.38;;
41572;SDS011;27286;47.870;19.006;2023-01-25T12:31:58;16.02;;;10.23;;
41572;SDS011;27286;47.870;19.006;2023-01-25T12:39:47;14.93;;;9.80;;
41572;SDS011;27286;47.870;19.006;2023-01-25T12:42:22;15.70;;;11.10;;
41572;SDS011;27286;47.870;19.006;2023-01-25T12:44:55;50.30;;;28.73;;
41572;SDS011;27286;47.870;19.006;2023-01-25T12:47:32;21.58;;;13.82;;
41572;SDS011;27286;47.870;19.006;2023-01-25T12:52:41;21.10;;;13.40;;
41572;SDS011;27286;47.870;19.006;2023-01-25T12:55:18;18.95;;;12.10;;
41572;SDS011;27286;47.870;19.006;2023-01-25T12:57:57;15.70;;;9.90;;
41572;SDS011;27286;47.870;19.006;2023-01-25T13:03:29;22.13;;;12.10;;
41572;SDS011;27286;47.870;19.006;2023-01-25T13:13:48;13.10;;;8.13;;
41572;SDS011;27286;47.870;19.006;2023-01-25T13:17:17;23.92;;;10.30;;
41572;SDS011;27286;47.870;19.006;2023-01-25T13:21:53;12.20;;;8.93;;
41572;SDS011;27286;47.870;19.006;2023-01-25T13:24:24;14.25;;;9.50;;
41572;SDS011;27286;47.870;19.006;2023-01-25T13:31:59;17.55;;;10.32;;
41572;SDS011;27286;47.870;19.006;2023-01-25T13:37:20;12.85;;;8.60;;
41572;SDS011;27286;47.870;19.006;2023-01-25T13:42:32;12.02;;;8.40;;
41572;SDS011;27286;47.870;19.006;2023-01-25T13:47:37;13.55;;;7.88;;
41572;SDS011;27286;47.870;19.006;2023-01-25T13:50:20;15.13;;;8.40;;
41572;SDS011;27286;47.870;19.006;2023-01-25T13:52:56;13.95;;;9.25;;
41572;SDS011;27286;47.870;19.006;2023-01-25T13:55:27;12.25;;;8.75;;
41572;SDS011;27286;47.870;19.006;2023-01-25T13:58:07;13.85;;;9.50;;
41572;SDS011;27286;47.870;19.006;2023-01-25T14:00:33;17.35;;;11.27;;
41572;SDS011;27286;47.870;19.006;2023-01-25T14:02:59;14.05;;;9.07;;
41572;SDS011;27286;47.870;19.006;2023-01-25T14:05:25;17.58;;;10.80;;
41572;SDS011;27286;47.870;19.006;2023-01-25T14:07:53;15.93;;;10.15;;
41572;SDS011;27286;47.870;19.006;2023-01-25T14:10:22;13.77;;;8.73;;
41572;SDS011;27286;47.870;19.006;2023-01-25T14:12:50;18.10;;;12.70;;
41572;SDS011;27286;47.870;19.006;2023-01-25T14:18:07;18.42;;;10.82;;
41572;SDS011;27286;47.870;19.006;2023-01-25T14:20:43;14.63;;;9.70;;
41572;SDS011;27286;47.870;19.006;2023-01-25T14:23:24;17.02;;;10.98;;
41572;SDS011;27286;47.870;19.006;2023-01-25T14:25:52;24.52;;;14.02;;
41572;SDS011;27286;47.870;19.006;2023-01-25T14:28:19;16.65;;;11.90;;
41572;SDS011;27286;47.870;19.006;2023-01-25T14:30:52;16.50;;;9.25;;
41572;SDS011;27286;47.870;19.006;2023-01-25T14:33:21;20.80;;;15.20;;
41572;SDS011;27286;47.870;19.006;2023-01-25T14:35:50;24.83;;;15.52;;
41572;SDS011;27286;47.870;19.006;2023-01-25T14:40:43;26.80;;;16.83;;
41572;SDS011;27286;47.870;19.006;2023-01-25T14:43:10;24.88;;;15.23;;
41572;SDS011;27286;47.870;19.006;2023-01-25T14:45:36;23.08;;;15.75;;
41572;SDS011;27286;47.870;19.006;2023-01-25T14:48:01;21.70;;;13.25;;
41572;SDS011;27286;47.870;19.006;2023-01-25T14:55:44;19.00;;;13.43;;
41572;SDS011;27286;47.870;19.006;2023-01-25T14:58:15;28.65;;;16.83;;
41572;SDS011;27286;47.870;19.006;2023-01-25T15:00:52;19.00;;;12.32;;
41572;SDS011;27286;47.870;19.006;2023-01-25T15:03:19;18.88;;;12.52;;
41572;SDS011;27286;47.870;19.006;2023-01-25T15:05:46;22.15;;;15.80;;
41572;SDS011;27286;47.870;19.006;2023-01-25T15:10:53;26.42;;;14.70;;
41572;SDS011;27286;47.870;19.006;2023-01-25T15:13:42;27.35;;;15.23;;
41572;SDS011;27286;47.870;19.006;2023-01-25T15:16:07;23.10;;;13.95;;
41572;SDS011;27286;47.870;19.006;2023-01-25T15:18:40;44.00;;;24.73;;
41572;SDS011;27286;47.870;19.006;2023-01-25T15:23:45;50.95;;;32.53;;
41572;SDS011;27286;47.870;19.006;2023-01-25T15:26:19;33.80;;;22.40;;
41572;SDS011;27286;47.870;19.006;2023-01-25T15:28:47;41.92;;;17.50;;
41572;SDS011;27286;47.870;19.006;2023-01-25T15:31:20;27.75;;;17.15;;
41572;SDS011;27286;47.870;19.006;2023-01-25T15:33:48;25.65;;;13.77;;
41572;SDS011;27286;47.870;19.006;2023-01-25T15:36:14;23.77;;;15.45;;
41572;SDS011;27286;47.870;19.006;2023-01-25T15:38:41;26.17;;;16.08;;
41572;SDS011;27286;47.870;19.006;2023-01-25T15:41:06;24.92;;;16.05;;
41572;SDS011;27286;47.870;19.006;2023-01-25T15:43:32;33.33;;;19.10;;
41572;SDS011;27286;47.870;19.006;2023-01-25T15:45:58;39.17;;;24.67;;
41572;SDS011;27286;47.870;19.006;2023-01-25T15:48:29;40.90;;;26.80;;
41572;SDS011;27286;47.870;19.006;2023-01-25T15:50:57;49.60;;;31.20;;
41572;SDS011;27286;47.870;19.006;2023-01-25T15:53:23;51.67;;;32.17;;
41572;SDS011;27286;47.870;19.006;2023-01-25T15:55:50;35.75;;;24.15;;
41572;SDS011;27286;47.870;19.006;2023-01-25T15:58:23;52.78;;;30.88;;
41572;SDS011;27286;47.870;19.006;2023-01-25T16:00:58;51.47;;;30.60;;
41572;SDS011;27286;47.870;19.006;2023-01-25T16:03:27;44.35;;;27.55;;
41572;SDS011;27286;47.870;19.006;2023-01-25T16:05:55;26.80;;;17.05;;
41572;SDS011;27286;47.870;19.006;2023-01-25T16:08:23;23.52;;;14.85;;
41572;SDS011;27286;47.870;19.006;2023-01-25T16:10:49;29.00;;;16.90;;
41572;SDS011;27286;47.870;19.006;2023-01-25T16:13:14;28.65;;;17.50;;
41572;SDS011;27286;47.870;19.006;2023-01-25T16:15:40;34.13;;;22.58;;
41572;SDS011;27286;47.870;19.006;2023-01-25T16:18:08;40.92;;;26.80;;
41572;SDS011;27286;47.870;19.006;2023-01-25T16:20:39;42.75;;;26.98;;
41572;SDS011;27286;47.870;19.006;2023-01-25T16:23:05;37.30;;;24.80;;
41572;SDS011;27286;47.870;19.006;2023-01-25T16:25:32;36.75;;;24.48;;
41572;SDS011;27286;47.870;19.006;2023-01-25T16:27:58;32.17;;;21.90;;
41572;SDS011;27286;47.870;19.006;2023-01-25T16:30:24;32.42;;;21.60;;
41572;SDS011;27286;47.870;19.006;2023-01-25T16:32:53;29.65;;;18.50;;
41572;SDS011;27286;47.870;19.006;2023-01-25T16:35:19;31.67;;;20.55;;